LOWL/LNZ METAR and TAF weather

Enter ICAO airport designator
Station Type Date Time Source
LOWL METAR 2019/08/23 15:20 UTC NOAA

LOWL 231520Z 10005KT 050V150 9999 FEW040 BKN300 25/16 Q1023 NOSIG


Station Type Date Time Source
LOWL Decoded METAR 2019/08/23 15:20 UTC NOAA

Station name not available
Aug 23, 2019 - 11:20 AM EDT / 2019.08.23 1520 UTC
Wind: from the E (100 degrees) at 6 MPH (5 KT) (direction variable):0
Visibility: greater than 7 mile(s):0
Sky conditions: mostly cloudy
Temperature: 77 F (25 C)
Dew Point: 60 F (16 C)
Relative Humidity: 57%
Pressure (altimeter): 30.21 in. Hg (1023 hPa)
ob: LOWL 231520Z 10005KT 050V150 9999 FEW040 BKN300 25/16 Q1023 NOSIG
cycle: 15

Station Type Date Time Source
LOWL TAF 2019/08/23 12:21 UTC NOAA

TAF LOWL 231115Z 2312/2412 08008KT 9999 SCT035 TX26/2412Z TN17/2404Z
BECMG 2316/2318 10003KT
BECMG 2406/2408 09010KT

Example: see airport list